sensor_id;sensor_type;location;lat;lon;timestamp;temperature;humidity
24011;DHT22;12217;50.792;4.372;2024-01-30T00:00:09;12.30;99.90
24011;DHT22;12217;50.792;4.372;2024-01-30T00:02:35;12.40;99.90
24011;DHT22;12217;50.792;4.372;2024-01-30T00:05:01;12.30;99.90
24011;DHT22;12217;50.792;4.372;2024-01-30T00:07:26;12.10;99.90
24011;DHT22;12217;50.792;4.372;2024-01-30T00:09:54;12.10;99.90
24011;DHT22;12217;50.792;4.372;2024-01-30T00:12:26;12.10;99.90
24011;DHT22;12217;50.792;4.372;2024-01-30T00:14:55;12.10;99.90
24011;DHT22;12217;50.792;4.372;2024-01-30T00:17:27;12.00;99.90
24011;DHT22;12217;50.792;4.372;2024-01-30T00:20:02;11.90;99.90
24011;DHT22;12217;50.792;4.372;2024-01-30T00:22:34;12.00;99.90
24011;DHT22;12217;50.792;4.372;2024-01-30T00:25:00;12.10;99.90
24011;DHT22;12217;50.792;4.372;2024-01-30T00:27:26;12.00;99.90
24011;DHT22;12217;50.792;4.372;2024-01-30T00:29:52;12.10;99.90
24011;DHT22;12217;50.792;4.372;2024-01-30T00:32:18;12.20;99.90
24011;DHT22;12217;50.792;4.372;2024-01-30T00:34:48;12.30;99.90
24011;DHT22;12217;50.792;4.372;2024-01-30T00:37:17;12.20;99.90
24011;DHT22;12217;50.792;4.372;2024-01-30T00:39:48;12.30;99.90
24011;DHT22;12217;50.792;4.372;2024-01-30T00:42:16;12.40;99.90
24011;DHT22;12217;50.792;4.372;2024-01-30T00:44:42;12.50;99.90
24011;DHT22;12217;50.792;4.372;2024-01-30T00:47:08;12.40;99.90
24011;DHT22;12217;50.792;4.372;2024-01-30T00:49:33;12.30;99.90
24011;DHT22;12217;50.792;4.372;2024-01-30T00:51:59;12.30;99.90
24011;DHT22;12217;50.792;4.372;2024-01-30T00:54:24;12.30;99.90
24011;DHT22;12217;50.792;4.372;2024-01-30T00:56:50;12.20;99.90
24011;DHT22;12217;50.792;4.372;2024-01-30T00:59:15;12.30;99.90
24011;DHT22;12217;50.792;4.372;2024-01-30T01:01:41;12.30;99.90
24011;DHT22;12217;50.792;4.372;2024-01-30T01:04:07;12.30;99.90
24011;DHT22;12217;50.792;4.372;2024-01-30T01:06:32;12.30;99.90
24011;DHT22;12217;50.792;4.372;2024-01-30T01:08:58;12.30;99.90
24011;DHT22;12217;50.792;4.372;2024-01-30T01:11:23;12.40;99.90
24011;DHT22;12217;50.792;4.372;2024-01-30T01:13:49;12.50;99.90
24011;DHT22;12217;50.792;4.372;2024-01-30T01:16:15;12.60;99.90
24011;DHT22;12217;50.792;4.372;2024-01-30T01:18:40;12.50;99.90
24011;DHT22;12217;50.792;4.372;2024-01-30T01:21:06;12.50;99.90
24011;DHT22;12217;50.792;4.372;2024-01-30T01:23:31;12.50;99.90
24011;DHT22;12217;50.792;4.372;2024-01-30T01:25:57;12.40;99.90
24011;DHT22;12217;50.792;4.372;2024-01-30T01:28:25;12.40;99.90
24011;DHT22;12217;50.792;4.372;2024-01-30T01:30:50;12.40;99.90
24011;DHT22;12217;50.792;4.372;2024-01-30T01:33:16;12.40;99.90
24011;DHT22;12217;50.792;4.372;2024-01-30T01:35:42;12.60;99.90
24011;DHT22;12217;50.792;4.372;2024-01-30T01:38:08;12.60;99.90
24011;DHT22;12217;50.792;4.372;2024-01-30T01:40:34;12.60;99.90
24011;DHT22;12217;50.792;4.372;2024-01-30T01:43:03;12.70;99.90
24011;DHT22;12217;50.792;4.372;2024-01-30T01:45:30;12.90;99.90
24011;DHT22;12217;50.792;4.372;2024-01-30T01:47:56;12.80;99.90
24011;DHT22;12217;50.792;4.372;2024-01-30T01:50:22;12.80;99.90
24011;DHT22;12217;50.792;4.372;2024-01-30T01:52:48;12.70;99.90
24011;DHT22;12217;50.792;4.372;2024-01-30T01:55:15;12.70;99.90
24011;DHT22;12217;50.792;4.372;2024-01-30T01:57:44;12.80;99.90
24011;DHT22;12217;50.792;4.372;2024-01-30T02:00:10;12.80;99.90
24011;DHT22;12217;50.792;4.372;2024-01-30T02:02:39;12.80;99.90
24011;DHT22;12217;50.792;4.372;2024-01-30T02:05:05;12.90;99.90
24011;DHT22;12217;50.792;4.372;2024-01-30T02:07:31;12.80;99.90
24011;DHT22;12217;50.792;4.372;2024-01-30T02:09:57;12.80;99.90
24011;DHT22;12217;50.792;4.372;2024-01-30T02:12:22;12.60;99.90
24011;DHT22;12217;50.792;4.372;2024-01-30T02:14:49;12.70;99.90
24011;DHT22;12217;50.792;4.372;2024-01-30T02:17:15;12.70;99.90
24011;DHT22;12217;50.792;4.372;2024-01-30T02:19:41;12.70;99.90
24011;DHT22;12217;50.792;4.372;2024-01-30T02:22:07;12.60;99.90
24011;DHT22;12217;50.792;4.372;2024-01-30T02:24:33;12.60;99.90
24011;DHT22;12217;50.792;4.372;2024-01-30T02:26:59;12.60;99.90
24011;DHT22;12217;50.792;4.372;2024-01-30T02:29:25;12.50;99.90
24011;DHT22;12217;50.792;4.372;2024-01-30T02:31:50;12.50;99.90
24011;DHT22;12217;50.792;4.372;2024-01-30T02:34:16;12.50;99.90
24011;DHT22;12217;50.792;4.372;2024-01-30T02:36:45;12.60;99.90
24011;DHT22;12217;50.792;4.372;2024-01-30T02:39:11;12.70;99.90
24011;DHT22;12217;50.792;4.372;2024-01-30T02:41:37;12.70;99.90
24011;DHT22;12217;50.792;4.372;2024-01-30T02:44:03;12.70;99.90
24011;DHT22;12217;50.792;4.372;2024-01-30T02:46:29;12.70;99.90
24011;DHT22;12217;50.792;4.372;2024-01-30T02:48:54;12.70;99.90
24011;DHT22;12217;50.792;4.372;2024-01-30T02:51:20;12.60;99.90
24011;DHT22;12217;50.792;4.372;2024-01-30T02:53:46;12.60;99.90
24011;DHT22;12217;50.792;4.372;2024-01-30T02:56:11;12.60;99.90
24011;DHT22;12217;50.792;4.372;2024-01-30T02:58:39;12.70;99.90
24011;DHT22;12217;50.792;4.372;2024-01-30T03:01:06;12.50;99.90
24011;DHT22;12217;50.792;4.372;2024-01-30T03:03:32;12.60;99.90
24011;DHT22;12217;50.792;4.372;2024-01-30T03:05:59;12.60;99.90
24011;DHT22;12217;50.792;4.372;2024-01-30T03:08:25;12.70;99.90
24011;DHT22;12217;50.792;4.372;2024-01-30T03:10:50;12.60;99.90
24011;DHT22;12217;50.792;4.372;2024-01-30T03:13:16;12.70;99.90
24011;DHT22;12217;50.792;4.372;2024-01-30T03:15:41;12.70;99.90
24011;DHT22;12217;50.792;4.372;2024-01-30T03:18:07;12.80;99.90
24011;DHT22;12217;50.792;4.372;2024-01-30T03:20:33;12.80;99.90
24011;DHT22;12217;50.792;4.372;2024-01-30T03:23:00;12.80;99.90
24011;DHT22;12217;50.792;4.372;2024-01-30T03:25:26;12.80;99.90
24011;DHT22;12217;50.792;4.372;2024-01-30T03:27:51;12.70;99.90
24011;DHT22;12217;50.792;4.372;2024-01-30T03:30:25;12.60;99.90
24011;DHT22;12217;50.792;4.372;2024-01-30T03:32:59;12.60;99.90
24011;DHT22;12217;50.792;4.372;2024-01-30T03:35:25;12.60;99.90
24011;DHT22;12217;50.792;4.372;2024-01-30T03:37:54;12.60;99.90
24011;DHT22;12217;50.792;4.372;2024-01-30T03:40:22;12.70;99.90
24011;DHT22;12217;50.792;4.372;2024-01-30T03:42:48;12.70;99.90
24011;DHT22;12217;50.792;4.372;2024-01-30T03:45:14;12.60;99.90
24011;DHT22;12217;50.792;4.372;2024-01-30T03:47:39;12.70;99.90
24011;DHT22;12217;50.792;4.372;2024-01-30T03:50:05;12.90;99.90
24011;DHT22;12217;50.792;4.372;2024-01-30T03:52:31;12.80;99.90
24011;DHT22;12217;50.792;4.372;2024-01-30T03:54:56;12.80;99.90
24011;DHT22;12217;50.792;4.372;2024-01-30T03:57:22;12.90;99.90
24011;DHT22;12217;50.792;4.372;2024-01-30T03:59:48;12.90;99.90
24011;DHT22;12217;50.792;4.372;2024-01-30T04:02:13;13.00;99.90
24011;DHT22;12217;50.792;4.372;2024-01-30T04:04:39;12.90;99.90
24011;DHT22;12217;50.792;4.372;2024-01-30T04:07:04;13.10;99.90
24011;DHT22;12217;50.792;4.372;2024-01-30T04:09:30;13.00;99.90
24011;DHT22;12217;50.792;4.372;2024-01-30T04:11:57;13.00;99.90
24011;DHT22;12217;50.792;4.372;2024-01-30T04:14:22;13.00;99.90
24011;DHT22;12217;50.792;4.372;2024-01-30T04:16:48;12.90;99.90
24011;DHT22;12217;50.792;4.372;2024-01-30T04:19:13;12.90;99.90
24011;DHT22;12217;50.792;4.372;2024-01-30T04:21:39;12.80;99.90
24011;DHT22;12217;50.792;4.372;2024-01-30T04:24:05;12.70;99.90
24011;DHT22;12217;50.792;4.372;2024-01-30T04:26:31;12.80;99.90
24011;DHT22;12217;50.792;4.372;2024-01-30T04:28:56;12.80;99.90
24011;DHT22;12217;50.792;4.372;2024-01-30T04:31:22;12.80;99.90
24011;DHT22;12217;50.792;4.372;2024-01-30T04:34:06;12.90;99.90
24011;DHT22;12217;50.792;4.372;2024-01-30T04:36:32;12.90;99.90
24011;DHT22;12217;50.792;4.372;2024-01-30T04:38:57;12.80;99.90
24011;DHT22;12217;50.792;4.372;2024-01-30T04:41:23;12.80;99.90
24011;DHT22;12217;50.792;4.372;2024-01-30T04:43:49;12.90;99.90
24011;DHT22;12217;50.792;4.372;2024-01-30T04:46:15;13.00;99.90
24011;DHT22;12217;50.792;4.372;2024-01-30T04:48:40;13.00;99.90
24011;DHT22;12217;50.792;4.372;2024-01-30T04:51:06;13.00;99.90
24011;DHT22;12217;50.792;4.372;2024-01-30T04:53:32;12.90;99.90
24011;DHT22;12217;50.792;4.372;2024-01-30T04:55:57;12.80;99.90
24011;DHT22;12217;50.792;4.372;2024-01-30T04:58:23;12.90;99.90
24011;DHT22;12217;50.792;4.372;2024-01-30T05:00:48;13.00;99.90
24011;DHT22;12217;50.792;4.372;2024-01-30T05:03:19;13.00;99.90
24011;DHT22;12217;50.792;4.372;2024-01-30T05:05:45;13.00;99.90
24011;DHT22;12217;50.792;4.372;2024-01-30T05:08:11;12.90;99.90
24011;DHT22;12217;50.792;4.372;2024-01-30T05:10:37;12.80;99.90
24011;DHT22;12217;50.792;4.372;2024-01-30T05:13:02;12.80;99.90
24011;DHT22;12217;50.792;4.372;2024-01-30T05:15:28;12.60;99.90
24011;DHT22;12217;50.792;4.372;2024-01-30T05:17:53;12.60;99.90
24011;DHT22;12217;50.792;4.372;2024-01-30T05:20:19;12.50;99.90
24011;DHT22;12217;50.792;4.372;2024-01-30T05:22:48;12.60;99.90
24011;DHT22;12217;50.792;4.372;2024-01-30T05:25:14;12.60;99.90
24011;DHT22;12217;50.792;4.372;2024-01-30T05:27:39;12.60;99.90
24011;DHT22;12217;50.792;4.372;2024-01-30T05:30:06;12.70;99.90
24011;DHT22;12217;50.792;4.372;2024-01-30T05:32:32;12.50;99.90
24011;DHT22;12217;50.792;4.372;2024-01-30T05:35:03;12.60;99.90
24011;DHT22;12217;50.792;4.372;2024-01-30T05:37:33;12.70;99.90
24011;DHT22;12217;50.792;4.372;2024-01-30T05:40:02;12.70;99.90
24011;DHT22;12217;50.792;4.372;2024-01-30T05:42:28;12.70;99.90
24011;DHT22;12217;50.792;4.372;2024-01-30T05:44:53;12.70;99.90
24011;DHT22;12217;50.792;4.372;2024-01-30T05:47:28;12.60;99.90
24011;DHT22;12217;50.792;4.372;2024-01-30T05:49:57;12.40;99.90
24011;DHT22;12217;50.792;4.372;2024-01-30T05:52:23;12.40;99.90
24011;DHT22;12217;50.792;4.372;2024-01-30T05:54:52;12.30;99.90
24011;DHT22;12217;50.792;4.372;2024-01-30T05:57:18;12.40;99.90
24011;DHT22;12217;50.792;4.372;2024-01-30T05:59:52;12.40;99.90
24011;DHT22;12217;50.792;4.372;2024-01-30T06:02:21;12.40;99.90
24011;DHT22;12217;50.792;4.372;2024-01-30T06:04:46;12.30;99.90
24011;DHT22;12217;50.792;4.372;2024-01-30T06:07:12;12.30;99.90
24011;DHT22;12217;50.792;4.372;2024-01-30T06:09:38;12.20;99.90
24011;DHT22;12217;50.792;4.372;2024-01-30T06:12:05;12.30;99.90
24011;DHT22;12217;50.792;4.372;2024-01-30T06:14:30;12.30;99.90
24011;DHT22;12217;50.792;4.372;2024-01-30T06:16:56;12.30;99.90
24011;DHT22;12217;50.792;4.372;2024-01-30T06:19:22;12.20;99.90
24011;DHT22;12217;50.792;4.372;2024-01-30T06:21:47;12.20;99.90
24011;DHT22;12217;50.792;4.372;2024-01-30T06:24:13;12.20;99.90
24011;DHT22;12217;50.792;4.372;2024-01-30T06:26:39;12.10;99.90
24011;DHT22;12217;50.792;4.372;2024-01-30T06:29:05;12.10;99.90
24011;DHT22;12217;50.792;4.372;2024-01-30T06:31:30;12.20;99.90
24011;DHT22;12217;50.792;4.372;2024-01-30T06:33:56;12.10;99.90
24011;DHT22;12217;50.792;4.372;2024-01-30T06:36:22;12.00;99.90
24011;DHT22;12217;50.792;4.372;2024-01-30T06:38:47;12.00;99.90
24011;DHT22;12217;50.792;4.372;2024-01-30T06:41:13;12.00;99.90
24011;DHT22;12217;50.792;4.372;2024-01-30T06:43:39;12.10;99.90
24011;DHT22;12217;50.792;4.372;2024-01-30T06:46:04;12.10;99.90
24011;DHT22;12217;50.792;4.372;2024-01-30T06:48:30;12.30;99.90
24011;DHT22;12217;50.792;4.372;2024-01-30T06:50:57;12.20;99.90
24011;DHT22;12217;50.792;4.372;2024-01-30T06:53:23;12.10;99.90
24011;DHT22;12217;50.792;4.372;2024-01-30T06:55:51;11.90;99.90
24011;DHT22;12217;50.792;4.372;2024-01-30T06:58:20;11.90;99.90
24011;DHT22;12217;50.792;4.372;2024-01-30T07:00:45;12.00;99.90
24011;DHT22;12217;50.792;4.372;2024-01-30T07:03:11;12.00;99.90
24011;DHT22;12217;50.792;4.372;2024-01-30T07:05:40;12.00;99.90
24011;DHT22;12217;50.792;4.372;2024-01-30T07:08:05;12.00;99.90
24011;DHT22;12217;50.792;4.372;2024-01-30T07:10:31;12.00;99.90
24011;DHT22;12217;50.792;4.372;2024-01-30T07:12:57;12.00;99.90
24011;DHT22;12217;50.792;4.372;2024-01-30T07:15:22;12.00;99.90
24011;DHT22;12217;50.792;4.372;2024-01-30T07:17:48;11.80;99.90
24011;DHT22;12217;50.792;4.372;2024-01-30T07:20:13;11.80;99.90
24011;DHT22;12217;50.792;4.372;2024-01-30T07:22:40;11.90;99.90
24011;DHT22;12217;50.792;4.372;2024-01-30T07:25:06;11.90;99.90
24011;DHT22;12217;50.792;4.372;2024-01-30T07:27:32;11.90;99.90
24011;DHT22;12217;50.792;4.372;2024-01-30T07:29:57;12.00;99.90
24011;DHT22;12217;50.792;4.372;2024-01-30T07:32:23;12.20;99.90
24011;DHT22;12217;50.792;4.372;2024-01-30T07:34:49;12.20;99.90
24011;DHT22;12217;50.792;4.372;2024-01-30T07:37:14;12.20;99.90
24011;DHT22;12217;50.792;4.372;2024-01-30T07:39:41;12.20;99.90
24011;DHT22;12217;50.792;4.372;2024-01-30T07:42:08;12.10;99.90
24011;DHT22;12217;50.792;4.372;2024-01-30T07:44:34;12.10;99.90
24011;DHT22;12217;50.792;4.372;2024-01-30T07:46:59;12.10;99.90
24011;DHT22;12217;50.792;4.372;2024-01-30T07:49:25;12.10;99.90
24011;DHT22;12217;50.792;4.372;2024-01-30T07:51:51;12.10;99.90
24011;DHT22;12217;50.792;4.372;2024-01-30T07:54:17;12.30;99.90
24011;DHT22;12217;50.792;4.372;2024-01-30T07:56:43;12.40;99.90
24011;DHT22;12217;50.792;4.372;2024-01-30T07:59:12;12.30;99.90
24011;DHT22;12217;50.792;4.372;2024-01-30T08:01:38;12.20;99.90
24011;DHT22;12217;50.792;4.372;2024-01-30T08:04:22;12.20;99.90
24011;DHT22;12217;50.792;4.372;2024-01-30T08:06:48;12.20;99.90
24011;DHT22;12217;50.792;4.372;2024-01-30T08:09:16;12.20;99.90
24011;DHT22;12217;50.792;4.372;2024-01-30T08:11:51;12.30;99.90
24011;DHT22;12217;50.792;4.372;2024-01-30T08:14:20;12.20;99.90
24011;DHT22;12217;50.792;4.372;2024-01-30T08:16:46;12.20;99.90
24011;DHT22;12217;50.792;4.372;2024-01-30T08:19:12;12.10;99.90
24011;DHT22;12217;50.792;4.372;2024-01-30T08:21:37;12.10;99.90
24011;DHT22;12217;50.792;4.372;2024-01-30T08:24:04;12.20;99.90
24011;DHT22;12217;50.792;4.372;2024-01-30T08:26:31;12.30;99.90
24011;DHT22;12217;50.792;4.372;2024-01-30T08:28:56;12.30;99.90
24011;DHT22;12217;50.792;4.372;2024-01-30T08:31:22;12.30;99.90
24011;DHT22;12217;50.792;4.372;2024-01-30T08:33:48;12.40;99.90
24011;DHT22;12217;50.792;4.372;2024-01-30T08:36:15;12.20;99.90
24011;DHT22;12217;50.792;4.372;2024-01-30T08:38:41;12.30;99.90
24011;DHT22;12217;50.792;4.372;2024-01-30T08:41:07;12.30;99.90
24011;DHT22;12217;50.792;4.372;2024-01-30T08:43:33;12.40;99.90
24011;DHT22;12217;50.792;4.372;2024-01-30T08:46:02;12.50;99.90
24011;DHT22;12217;50.792;4.372;2024-01-30T08:48:28;12.50;99.90
24011;DHT22;12217;50.792;4.372;2024-01-30T08:50:54;12.50;99.90
24011;DHT22;12217;50.792;4.372;2024-01-30T08:53:20;12.50;99.90
24011;DHT22;12217;50.792;4.372;2024-01-30T08:55:46;12.40;99.90
24011;DHT22;12217;50.792;4.372;2024-01-30T08:58:11;12.30;99.90
24011;DHT22;12217;50.792;4.372;2024-01-30T09:00:37;12.20;99.90
24011;DHT22;12217;50.792;4.372;2024-01-30T09:03:04;12.10;99.90
24011;DHT22;12217;50.792;4.372;2024-01-30T09:05:29;12.10;99.90
24011;DHT22;12217;50.792;4.372;2024-01-30T09:07:55;12.10;99.90
24011;DHT22;12217;50.792;4.372;2024-01-30T09:10:21;11.90;99.90
24011;DHT22;12217;50.792;4.372;2024-01-30T09:12:47;12.00;99.90
24011;DHT22;12217;50.792;4.372;2024-01-30T09:15:13;12.00;99.90
24011;DHT22;12217;50.792;4.372;2024-01-30T09:17:39;12.00;99.90
24011;DHT22;12217;50.792;4.372;2024-01-30T09:20:07;12.00;99.90
24011;DHT22;12217;50.792;4.372;2024-01-30T09:22:34;12.00;99.90
24011;DHT22;12217;50.792;4.372;2024-01-30T09:25:00;12.00;99.90
24011;DHT22;12217;50.792;4.372;2024-01-30T09:27:26;12.10;99.90
24011;DHT22;12217;50.792;4.372;2024-01-30T09:29:54;12.10;99.90
24011;DHT22;12217;50.792;4.372;2024-01-30T09:32:19;12.00;99.90
24011;DHT22;12217;50.792;4.372;2024-01-30T09:34:45;12.10;99.90
24011;DHT22;12217;50.792;4.372;2024-01-30T09:37:11;12.00;99.90
24011;DHT22;12217;50.792;4.372;2024-01-30T09:39:36;12.00;99.90
24011;DHT22;12217;50.792;4.372;2024-01-30T09:42:24;12.00;99.90
24011;DHT22;12217;50.792;4.372;2024-01-30T09:44:52;12.00;99.90
24011;DHT22;12217;50.792;4.372;2024-01-30T09:47:18;12.00;99.90
24011;DHT22;12217;50.792;4.372;2024-01-30T09:49:44;11.90;99.90
24011;DHT22;12217;50.792;4.372;2024-01-30T09:52:11;11.90;99.90
24011;DHT22;12217;50.792;4.372;2024-01-30T09:54:38;11.80;99.90
24011;DHT22;12217;50.792;4.372;2024-01-30T09:57:04;11.90;99.90
24011;DHT22;12217;50.792;4.372;2024-01-30T09:59:31;11.80;99.90
24011;DHT22;12217;50.792;4.372;2024-01-30T10:01:57;11.80;99.90
24011;DHT22;12217;50.792;4.372;2024-01-30T10:04:23;12.10;99.90
24011;DHT22;12217;50.792;4.372;2024-01-30T10:06:49;12.10;99.90
24011;DHT22;12217;50.792;4.372;2024-01-30T10:09:16;12.00;99.90
24011;DHT22;12217;50.792;4.372;2024-01-30T10:11:41;12.00;99.90
24011;DHT22;12217;50.792;4.372;2024-01-30T10:14:07;11.90;99.90
24011;DHT22;12217;50.792;4.372;2024-01-30T10:16:34;11.80;99.90
24011;DHT22;12217;50.792;4.372;2024-01-30T10:19:00;11.80;99.90
24011;DHT22;12217;50.792;4.372;2024-01-30T10:21:50;11.70;99.90
24011;DHT22;12217;50.792;4.372;2024-01-30T10:24:19;11.70;99.90
24011;DHT22;12217;50.792;4.372;2024-01-30T10:26:53;11.60;99.90
24011;DHT22;12217;50.792;4.372;2024-01-30T10:29:19;11.70;99.90
24011;DHT22;12217;50.792;4.372;2024-01-30T10:31:44;11.60;99.90
24011;DHT22;12217;50.792;4.372;2024-01-30T10:34:18;11.50;99.90
24011;DHT22;12217;50.792;4.372;2024-01-30T10:36:46;11.60;99.90
24011;DHT22;12217;50.792;4.372;2024-01-30T10:39:17;11.60;99.90
24011;DHT22;12217;50.792;4.372;2024-01-30T10:41:44;11.60;99.90
24011;DHT22;12217;50.792;4.372;2024-01-30T10:44:20;11.50;99.90
24011;DHT22;12217;50.792;4.372;2024-01-30T10:47:00;11.60;99.90
24011;DHT22;12217;50.792;4.372;2024-01-30T10:49:45;11.60;99.90
24011;DHT22;12217;50.792;4.372;2024-01-30T10:52:13;11.60;99.90
24011;DHT22;12217;50.792;4.372;2024-01-30T10:54:40;11.80;99.90
24011;DHT22;12217;50.792;4.372;2024-01-30T10:57:10;11.90;99.90
24011;DHT22;12217;50.792;4.372;2024-01-30T10:59:36;11.90;99.90
24011;DHT22;12217;50.792;4.372;2024-01-30T11:02:03;11.90;99.90
24011;DHT22;12217;50.792;4.372;2024-01-30T11:04:36;11.90;99.90
24011;DHT22;12217;50.792;4.372;2024-01-30T11:07:02;11.90;99.90
24011;DHT22;12217;50.792;4.372;2024-01-30T11:09:29;11.90;99.90
24011;DHT22;12217;50.792;4.372;2024-01-30T11:11:58;11.80;99.90
24011;DHT22;12217;50.792;4.372;2024-01-30T11:14:28;11.70;99.90
24011;DHT22;12217;50.792;4.372;2024-01-30T11:16:57;11.50;99.90
24011;DHT22;12217;50.792;4.372;2024-01-30T11:19:26;11.50;99.90
24011;DHT22;12217;50.792;4.372;2024-01-30T11:21:53;11.50;99.90
24011;DHT22;12217;50.792;4.372;2024-01-30T11:24:23;11.40;99.90
24011;DHT22;12217;50.792;4.372;2024-01-30T11:27:12;11.30;99.90
24011;DHT22;12217;50.792;4.372;2024-01-30T11:29:50;11.40;99.90
24011;DHT22;12217;50.792;4.372;2024-01-30T11:32:22;11.20;99.90
24011;DHT22;12217;50.792;4.372;2024-01-30T11:34:49;11.20;99.90
24011;DHT22;12217;50.792;4.372;2024-01-30T11:40:02;11.30;99.90
24011;DHT22;12217;50.792;4.372;2024-01-30T11:42:32;11.40;99.90
24011;DHT22;12217;50.792;4.372;2024-01-30T11:45:00;11.40;99.90
24011;DHT22;12217;50.792;4.372;2024-01-30T11:47:29;11.40;99.90
24011;DHT22;12217;50.792;4.372;2024-01-30T11:49:55;11.40;99.90
24011;DHT22;12217;50.792;4.372;2024-01-30T11:52:20;11.50;99.90
24011;DHT22;12217;50.792;4.372;2024-01-30T11:54:46;11.50;99.90
24011;DHT22;12217;50.792;4.372;2024-01-30T11:57:12;11.50;99.90
24011;DHT22;12217;50.792;4.372;2024-01-30T11:59:44;11.30;99.90
24011;DHT22;12217;50.792;4.372;2024-01-30T12:02:18;11.20;99.90
24011;DHT22;12217;50.792;4.372;2024-01-30T12:04:53;11.30;99.90
24011;DHT22;12217;50.792;4.372;2024-01-30T12:07:21;11.40;99.90
24011;DHT22;12217;50.792;4.372;2024-01-30T12:09:53;11.60;99.90
24011;DHT22;12217;50.792;4.372;2024-01-30T12:12:22;12.00;99.90
24011;DHT22;12217;50.792;4.372;2024-01-30T12:14:48;13.10;99.90
24011;DHT22;12217;50.792;4.372;2024-01-30T12:17:29;13.60;99.90
24011;DHT22;12217;50.792;4.372;2024-01-30T12:20:11;13.50;99.90
24011;DHT22;12217;50.792;4.372;2024-01-30T12:22:42;12.90;99.90
24011;DHT22;12217;50.792;4.372;2024-01-30T12:25:09;12.70;99.90
24011;DHT22;12217;50.792;4.372;2024-01-30T12:27:35;12.10;99.90
24011;DHT22;12217;50.792;4.372;2024-01-30T12:30:12;12.00;99.90
24011;DHT22;12217;50.792;4.372;2024-01-30T12:32:42;12.10;99.90
24011;DHT22;12217;50.792;4.372;2024-01-30T12:35:10;12.10;99.90
24011;DHT22;12217;50.792;4.372;2024-01-30T12:37:37;12.20;99.90
24011;DHT22;12217;50.792;4.372;2024-01-30T12:40:02;12.10;99.90
24011;DHT22;12217;50.792;4.372;2024-01-30T12:42:28;12.00;99.90
24011;DHT22;12217;50.792;4.372;2024-01-30T12:44:56;13.40;99.90
24011;DHT22;12217;50.792;4.372;2024-01-30T12:47:28;16.00;99.90
24011;DHT22;12217;50.792;4.372;2024-01-30T12:49:59;18.40;99.90
24011;DHT22;12217;50.792;4.372;2024-01-30T12:52:29;18.90;99.90
24011;DHT22;12217;50.792;4.372;2024-01-30T12:54:55;19.10;99.90
24011;DHT22;12217;50.792;4.372;2024-01-30T12:57:20;19.10;99.90
24011;DHT22;12217;50.792;4.372;2024-01-30T12:59:46;20.50;99.90
24011;DHT22;12217;50.792;4.372;2024-01-30T13:02:13;20.30;98.40
24011;DHT22;12217;50.792;4.372;2024-01-30T13:04:39;18.40;99.90
24011;DHT22;12217;50.792;4.372;2024-01-30T13:07:08;16.80;99.90
24011;DHT22;12217;50.792;4.372;2024-01-30T13:09:43;16.30;99.90
24011;DHT22;12217;50.792;4.372;2024-01-30T13:12:18;15.70;99.90
24011;DHT22;12217;50.792;4.372;2024-01-30T13:14:51;16.40;99.90
24011;DHT22;12217;50.792;4.372;2024-01-30T13:17:20;18.30;99.90
24011;DHT22;12217;50.792;4.372;2024-01-30T13:19:46;18.00;99.90
24011;DHT22;12217;50.792;4.372;2024-01-30T13:22:12;16.20;99.90
24011;DHT22;12217;50.792;4.372;2024-01-30T13:24:40;15.30;99.90
24011;DHT22;12217;50.792;4.372;2024-01-30T13:27:09;14.80;99.90
24011;DHT22;12217;50.792;4.372;2024-01-30T13:29:37;14.20;99.90
24011;DHT22;12217;50.792;4.372;2024-01-30T13:32:12;13.70;99.90
24011;DHT22;12217;50.792;4.372;2024-01-30T13:34:38;13.00;99.90
24011;DHT22;12217;50.792;4.372;2024-01-30T13:37:05;12.40;99.90
24011;DHT22;12217;50.792;4.372;2024-01-30T13:39:31;12.50;99.90
24011;DHT22;12217;50.792;4.372;2024-01-30T13:41:56;12.40;99.90
24011;DHT22;12217;50.792;4.372;2024-01-30T13:44:22;12.40;99.90
24011;DHT22;12217;50.792;4.372;2024-01-30T13:46:48;12.30;99.90
24011;DHT22;12217;50.792;4.372;2024-01-30T13:49:13;11.80;99.90
24011;DHT22;12217;50.792;4.372;2024-01-30T13:51:39;11.70;99.90
24011;DHT22;12217;50.792;4.372;2024-01-30T13:54:04;11.70;99.90
24011;DHT22;12217;50.792;4.372;2024-01-30T13:56:30;11.90;99.90
24011;DHT22;12217;50.792;4.372;2024-01-30T13:58:56;12.20;99.90
24011;DHT22;12217;50.792;4.372;2024-01-30T14:01:22;12.20;99.90
24011;DHT22;12217;50.792;4.372;2024-01-30T14:03:48;11.90;99.90
24011;DHT22;12217;50.792;4.372;2024-01-30T14:06:14;12.00;99.90
24011;DHT22;12217;50.792;4.372;2024-01-30T14:08:40;11.80;99.90
24011;DHT22;12217;50.792;4.372;2024-01-30T14:11:06;11.80;99.90
24011;DHT22;12217;50.792;4.372;2024-01-30T14:13:32;11.90;99.90
24011;DHT22;12217;50.792;4.372;2024-01-30T14:15:58;11.90;99.90
24011;DHT22;12217;50.792;4.372;2024-01-30T14:18:24;12.00;99.90
24011;DHT22;12217;50.792;4.372;2024-01-30T14:20:51;11.80;99.90
24011;DHT22;12217;50.792;4.372;2024-01-30T14:23:17;13.00;99.90
24011;DHT22;12217;50.792;4.372;2024-01-30T14:25:43;13.40;99.90
24011;DHT22;12217;50.792;4.372;2024-01-30T14:28:08;13.10;99.90
24011;DHT22;12217;50.792;4.372;2024-01-30T14:30:34;13.00;99.90
24011;DHT22;12217;50.792;4.372;2024-01-30T14:33:01;12.80;99.90
24011;DHT22;12217;50.792;4.372;2024-01-30T14:35:26;12.60;99.90
24011;DHT22;12217;50.792;4.372;2024-01-30T14:37:52;12.40;99.90
24011;DHT22;12217;50.792;4.372;2024-01-30T14:40:19;12.50;99.90
24011;DHT22;12217;50.792;4.372;2024-01-30T14:42:45;12.50;99.90
24011;DHT22;12217;50.792;4.372;2024-01-30T14:45:11;12.20;99.90
24011;DHT22;12217;50.792;4.372;2024-01-30T14:47:43;12.00;99.90
24011;DHT22;12217;50.792;4.372;2024-01-30T14:50:09;12.00;99.90
24011;DHT22;12217;50.792;4.372;2024-01-30T14:52:34;12.10;99.90
24011;DHT22;12217;50.792;4.372;2024-01-30T14:55:00;12.10;99.90
24011;DHT22;12217;50.792;4.372;2024-01-30T14:57:34;11.90;99.90
24011;DHT22;12217;50.792;4.372;2024-01-30T15:00:08;11.70;99.90
24011;DHT22;12217;50.792;4.372;2024-01-30T15:02:37;11.60;99.90
24011;DHT22;12217;50.792;4.372;2024-01-30T15:05:05;11.50;99.90
24011;DHT22;12217;50.792;4.372;2024-01-30T15:07:37;11.20;99.90
24011;DHT22;12217;50.792;4.372;2024-01-30T15:10:06;11.30;99.90
24011;DHT22;12217;50.792;4.372;2024-01-30T15:12:40;11.40;99.90
24011;DHT22;12217;50.792;4.372;2024-01-30T15:15:10;11.10;99.90
24011;DHT22;12217;50.792;4.372;2024-01-30T15:17:42;11.10;99.90
24011;DHT22;12217;50.792;4.372;2024-01-30T15:20:11;11.00;99.90
24011;DHT22;12217;50.792;4.372;2024-01-30T15:22:37;11.10;99.90
24011;DHT22;12217;50.792;4.372;2024-01-30T15:25:09;11.20;99.90
24011;DHT22;12217;50.792;4.372;2024-01-30T15:27:34;11.10;99.90
24011;DHT22;12217;50.792;4.372;2024-01-30T15:30:12;11.00;99.90
24011;DHT22;12217;50.792;4.372;2024-01-30T15:32:43;10.80;99.90